Time;durP1;ratioP1;P1;durP2;ratioP2;P2;SDS_P1;SDS_P2;PMS_P1;PMS_P2;Temp;Humidity;BMP_temperature;BMP_pressure;BME280_temperature;BME280_humidity;BME280_pressure;Samples;Min_cycle;Max_cycle;Signal;HPM_P1;HPM_P2
2023/03/07 00:00:40;;;;;;;31.45;8.73;;;;;;;4.85;100.00;99826.97;5071438;28;20055;-51
2023/03/07 00:03:05;;;;;;;23.38;6.78;;;;;;;4.86;100.00;99827.78;5070771;28;20111;-51
2023/03/07 00:05:31;;;;;;;31.92;6.28;;;;;;;4.87;100.00;99829.44;5071720;28;20036;-53
2023/03/07 00:07:59;;;;;;;27.05;6.53;;;;;;;4.88;100.00;99831.13;5070130;28;20024;-54
2023/03/07 00:10:24;;;;;;;;;;;;;;;4.90;100.00;99832.63;5072557;28;20078;-51
2023/03/07 00:12:50;;;;;;;17.83;6.05;;;;;;;4.89;100.00;99833.59;5070031;28;19913;-53
2023/03/07 00:15:16;;;;;;;27.05;6.68;;;;;;;4.94;100.00;99831.25;5071475;28;20119;-54
2023/03/07 00:17:41;;;;;;;37.45;7.35;;;;;;;4.94;100.00;99827.75;5071412;28;20032;-51
2023/03/07 00:20:07;;;;;;;15.07;5.28;;;;;;;4.95;100.00;99826.75;5072093;28;20119;-51
2023/03/07 00:22:34;;;;;;;21.85;5.63;;;;;;;4.94;100.00;99819.75;5071387;28;20054;-51
2023/03/07 00:24:59;;;;;;;30.00;6.43;;;;;;;4.94;100.00;99820.59;5071885;28;20039;-51
2023/03/07 00:27:24;;;;;;;26.30;6.55;;;;;;;4.95;100.00;99816.94;5071519;28;20462;-54
2023/03/07 00:29:50;;;;;;;16.40;5.78;;;;;;;4.97;100.00;99814.91;5071154;28;20052;-53
2023/03/07 00:32:15;;;;;;;38.83;6.90;;;;;;;4.97;100.00;99809.59;5071195;28;20032;-52
2023/03/07 00:34:41;;;;;;;24.08;6.18;;;;;;;4.97;100.00;99811.41;5070766;28;20113;-49
2023/03/07 00:37:06;;;;;;;26.15;6.20;;;;;;;4.94;100.00;99815.25;5071641;28;20112;-52
2023/03/07 00:39:32;;;;;;;29.63;5.95;;;;;;;4.95;100.00;99821.41;5071730;28;20031;-51
2023/03/07 00:41:57;;;;;;;22.02;6.22;;;;;;;4.95;100.00;99800.09;5071476;28;20555;-52
2023/03/07 00:44:24;;;;;;;16.95;6.07;;;;;;;4.92;100.00;99801.25;5071653;28;20035;-53
2023/03/07 00:46:49;;;;;;;28.98;6.47;;;;;;;4.93;100.00;99797.59;5081152;28;20516;-51
2023/03/07 00:49:15;;;;;;;16.98;7.10;;;;;;;4.94;100.00;99785.94;5075336;28;20029;-53
2023/03/07 00:51:40;;;;;;;22.38;6.60;;;;;;;4.93;100.00;99799.44;5069045;28;20553;-52
2023/03/07 00:54:05;;;;;;;15.70;6.35;;;;;;;4.95;100.00;99795.63;5069979;28;20028;-53
2023/03/07 00:56:31;;;;;;;21.75;6.20;;;;;;;4.94;100.00;99790.44;5070414;28;20039;-52
2023/03/07 00:58:56;;;;;;;29.48;6.47;;;;;;;4.92;100.00;99795.09;5070623;28;20028;-50
2023/03/07 01:01:23;;;;;;;17.60;5.30;;;;;;;4.96;100.00;99793.78;5070383;28;20115;-53
2023/03/07 01:03:52;;;;;;;32.55;5.10;;;;;;;5.01;100.00;99780.75;5070240;28;20028;-53
2023/03/07 01:06:18;;;;;;;27.40;3.53;;;;;;;5.02;100.00;99791.22;5070528;28;20368;-52
2023/03/07 01:08:43;;;;;;;21.60;2.70;;;;;;;4.97;100.00;99782.09;5067684;28;20042;-52
2023/03/07 01:11:09;;;;;;;22.75;3.22;;;;;;;4.97;100.00;99796.25;5070400;28;20094;-51
2023/03/07 01:13:35;;;;;;;13.80;2.42;;;;;;;4.94;100.00;99790.44;5070610;28;20513;-52
2023/03/07 01:16:12;;;;;;;12.77;1.88;;;;;;;4.89;100.00;99790.94;5070605;28;20025;-53
2023/03/07 01:18:37;;;;;;;24.83;2.65;;;;;;;4.88;100.00;99783.97;5063189;28;20143;-54
2023/03/07 01:21:13;;;;;;;16.65;2.28;;;;;;;4.84;100.00;99785.28;5070692;28;20107;-53
2023/03/07 01:23:39;;;;;;;21.92;2.33;;;;;;;4.74;100.00;99782.84;5070746;28;20054;-51
2023/03/07 01:26:04;;;;;;;23.40;2.20;;;;;;;4.71;100.00;99783.16;5070783;28;20024;-53
2023/03/07 01:28:29;;;;;;;19.08;2.33;;;;;;;4.69;100.00;99777.19;5070528;28;20063;-51
2023/03/07 01:30:59;;;;;;;16.17;1.88;;;;;;;4.68;100.00;99772.00;5070427;28;20395;-52
2023/03/07 01:33:25;;;;;;;15.48;1.77;;;;;;;4.66;100.00;99774.00;5070653;28;20040;-51
2023/03/07 01:35:50;;;;;;;18.00;1.95;;;;;;;4.65;100.00;99767.03;5069679;28;20025;-51
2023/03/07 01:38:15;;;;;;;24.35;2.97;;;;;;;4.67;100.00;99770.34;5071013;28;20095;-51
2023/03/07 01:40:41;;;;;;;16.35;2.25;;;;;;;4.72;100.00;99773.34;5070663;28;20031;-50
2023/03/07 01:43:31;;;;;;;32.67;2.50;;;;;;;4.71;100.00;99771.66;5070148;28;20082;-52
2023/03/07 01:46:03;;;;;;;19.83;2.53;;;;;;;4.68;100.00;99766.69;5070585;28;20544;-53
2023/03/07 01:48:28;;;;;;;29.58;3.53;;;;;;;4.65;100.00;99764.34;5073251;28;20071;-53
2023/03/07 01:50:53;;;;;;;14.65;2.53;;;;;;;4.64;100.00;99762.72;5068233;28;20513;-54
2023/03/07 01:53:20;;;;;;;19.88;2.88;;;;;;;4.67;100.00;99759.69;5069782;28;20028;-53
2023/03/07 01:55:45;;;;;;;20.20;2.67;;;;;;;4.64;100.00;99760.03;5068477;28;20379;-52
2023/03/07 01:58:12;;;;;;;16.48;2.72;;;;;;;4.68;100.00;99745.34;5071164;28;20035;-53
2023/03/07 02:00:40;;;;;;;27.88;2.85;;;;;;;4.66;100.00;99748.22;5076697;28;20028;-52
2023/03/07 02:03:19;;;;;;;33.13;3.57;;;;;;;4.66;100.00;99753.53;5069250;28;20074;-53
2023/03/07 02:05:54;;;;;;;24.48;2.88;;;;;;;4.65;100.00;99753.69;5056090;28;20406;-51
2023/03/07 02:08:22;;;;;;;26.95;3.75;;;;;;;4.66;100.00;99756.22;5048587;28;20032;-53
2023/03/07 02:10:48;;;;;;;27.90;3.55;;;;;;;4.62;100.00;99747.69;5068440;28;20454;-50
2023/03/07 02:13:13;;;;;;;30.83;4.72;;;;;;;4.68;100.00;99740.03;5069280;28;20108;-52
2023/03/07 02:15:39;;;;;;;23.42;3.50;;;;;;;4.67;100.00;99731.19;5069823;28;20135;-51
2023/03/07 02:18:04;;;;;;;18.48;3.42;;;;;;;4.75;100.00;99741.00;5069890;28;20040;-50
2023/03/07 02:20:51;;;;;;;32.25;4.50;;;;;;;4.74;100.00;99723.34;5072606;28;20033;-53
2023/03/07 02:23:26;;;;;;;22.58;5.40;;;;;;;4.74;100.00;99723.34;5073873;28;20025;-51
2023/03/07 02:26:12;;;;;;;17.98;5.00;;;;;;;4.71;100.00;99721.84;5074265;28;20109;-51
2023/03/07 02:28:41;;;;;;;20.80;4.70;;;;;;;4.67;100.00;99715.22;5070767;28;20031;-53
2023/03/07 02:31:09;;;;;;;22.55;5.32;;;;;;;4.65;100.00;99722.53;5073593;28;20066;-52
2023/03/07 02:33:34;;;;;;;18.30;4.63;;;;;;;4.70;100.00;99711.38;5073261;28;20481;-53
2023/03/07 02:36:12;;;;;;;13.57;4.32;;;;;;;4.72;100.00;99709.38;5072641;28;20108;-51
2023/03/07 02:38:41;;;;;;;13.02;4.18;;;;;;;4.69;100.00;99707.06;5072490;28;20013;-52
2023/03/07 02:41:08;;;;;;;23.83;4.72;;;;;;;4.68;100.00;99703.53;5069616;28;20036;-53
2023/03/07 02:43:33;;;;;;;13.63;5.00;;;;;;;4.69;100.00;99704.41;5072277;28;20111;-51
2023/03/07 02:45:58;;;;;;;19.00;4.80;;;;;;;4.67;100.00;99695.72;5073441;28;20103;-54
2023/03/07 02:48:24;;;;;;;25.77;5.45;;;;;;;4.67;100.00;99701.06;5072729;28;20463;-52
2023/03/07 02:50:49;;;;;;;28.67;4.95;;;;;;;4.64;100.00;99696.09;5073137;28;20371;-50
2023/03/07 02:53:14;;;;;;;18.60;5.47;;;;;;;4.64;100.00;99694.25;5072636;28;20098;-52
2023/03/07 02:55:40;;;;;;;12.95;4.90;;;;;;;4.60;100.00;99693.72;5072439;28;20040;-54
2023/03/07 02:58:05;;;;;;;24.10;4.95;;;;;;;4.58;100.00;99690.44;5073514;28;20133;-52
2023/03/07 03:00:30;;;;;;;16.85;5.05;;;;;;;4.61;100.00;99690.09;5071550;28;20417;-51
2023/03/07 03:02:56;;;;;;;19.60;4.38;;;;;;;4.61;100.00;99686.59;5073714;28;20103;-50
2023/03/07 03:05:22;;;;;;;16.83;4.78;;;;;;;4.62;100.00;99689.06;5072389;28;20056;-51
2023/03/07 03:07:47;;;;;;;20.85;5.47;;;;;;;4.59;100.00;99673.44;5073398;28;20089;-51
2023/03/07 03:10:13;;;;;;;25.15;5.70;;;;;;;4.61;100.00;99676.75;5071337;28;20025;-51
2023/03/07 03:12:38;;;;;;;24.75;4.75;;;;;;;4.60;100.00;99674.25;5073450;28;20056;-52
2023/03/07 03:15:04;;;;;;;17.73;4.60;;;;;;;4.61;100.00;99679.44;5072521;28;20100;-52
2023/03/07 03:17:30;;;;;;;25.38;5.75;;;;;;;4.60;100.00;99675.09;5072029;28;20029;-53
2023/03/07 03:19:55;;;;;;;26.02;5.88;;;;;;;4.63;100.00;99673.91;5072725;28;20221;-50
2023/03/07 03:22:21;;;;;;;26.27;6.03;;;;;;;4.64;100.00;99677.44;5071903;28;20479;-51
2023/03/07 03:24:47;;;;;;;25.08;5.93;;;;;;;4.60;100.00;99669.75;5073066;28;20021;-52
2023/03/07 03:27:12;;;;;;;22.55;6.05;;;;;;;4.62;100.00;99673.09;5074032;28;20020;-53
2023/03/07 03:29:38;;;;;;;14.15;6.10;;;;;;;4.63;100.00;99668.56;5072474;28;20025;-51
2023/03/07 03:32:04;;;;;;;25.67;6.10;;;;;;;4.61;100.00;99674.09;5070929;28;20020;-49
2023/03/07 03:34:29;;;;;;;20.65;6.13;;;;;;;4.60;100.00;99667.09;5073614;28;20036;-50
2023/03/07 03:36:54;;;;;;;16.40;5.00;;;;;;;4.62;100.00;99678.41;5072408;28;20043;-50
2023/03/07 03:39:20;;;;;;;14.55;2.70;;;;;;;4.54;100.00;99678.44;5072879;28;20035;-49
2023/03/07 03:41:45;;;;;;;15.73;2.90;;;;;;;4.47;100.00;99680.13;5071212;28;20097;-49
2023/03/07 03:44:10;;;;;;;20.00;2.65;;;;;;;4.38;100.00;99675.84;5072600;28;20052;-51
2023/03/07 03:46:36;;;;;;;18.60;3.22;;;;;;;4.31;100.00;99674.84;5073401;28;20025;-50
2023/03/07 03:49:02;;;;;;;13.38;2.95;;;;;;;4.25;100.00;99675.53;5071594;28;20040;-52
2023/03/07 03:51:27;;;;;;;19.40;3.25;;;;;;;4.19;100.00;99677.03;5071750;28;20104;-50
2023/03/07 03:53:53;;;;;;;18.92;3.63;;;;;;;4.12;100.00;99679.53;5072315;28;20391;-51
2023/03/07 03:56:20;;;;;;;19.95;2.80;;;;;;;4.14;100.00;99684.72;5071723;28;20020;-51
2023/03/07 03:58:48;;;;;;;18.52;2.95;;;;;;;4.15;100.00;99681.03;5072411;28;20025;-53
2023/03/07 04:01:13;;;;;;;15.97;1.53;;;;;;;4.15;100.00;99679.19;5070461;28;20048;-53
2023/03/07 04:03:45;;;;;;;17.02;1.80;;;;;;;4.18;100.00;99670.88;5072465;28;20290;-54
2023/03/07 04:06:13;;;;;;;9.98;1.75;;;;;;;4.13;100.00;99673.22;5072407;28;20363;-54
2023/03/07 04:08:39;;;;;;;16.90;2.15;;;;;;;4.12;100.00;99671.53;5072220;28;20025;-53
2023/03/07 04:11:04;;;;;;;18.50;1.52;;;;;;;4.12;100.00;99670.72;5070721;28;20116;-52
2023/03/07 04:13:31;;;;;;;24.90;1.70;;;;;;;4.08;100.00;99672.91;5072133;28;20025;-54
2023/03/07 04:15:56;;;;;;;27.55;1.88;;;;;;;4.12;100.00;99665.41;5071892;28;20114;-53
2023/03/07 04:18:22;;;;;;;16.55;1.52;;;;;;;4.12;100.00;99666.22;5071513;28;20071;-54
2023/03/07 04:20:49;;;;;;;16.52;1.45;;;;;;;4.08;100.00;99670.25;5071814;28;20037;-52
2023/03/07 04:23:15;;;;;;;15.85;1.92;;;;;;;4.05;100.00;99667.06;5070761;28;20040;-54
2023/03/07 04:25:46;;;;;;;18.58;1.60;;;;;;;4.00;100.00;99662.25;5072066;28;20036;-54
2023/03/07 04:28:12;;;;;;;16.83;1.05;;;;;;;3.97;100.00;99659.91;5068162;28;20032;-52
2023/03/07 04:30:37;;;;;;;21.52;1.30;;;;;;;4.01;100.00;99653.28;5071451;28;20085;-53
2023/03/07 04:33:02;;;;;;;14.40;1.20;;;;;;;3.99;100.00;99649.94;5071588;28;20031;-53
2023/03/07 04:35:28;;;;;;;9.02;1.38;;;;;;;3.96;100.00;99656.44;5071845;28;20597;-54
2023/03/07 04:37:53;;;;;;;12.25;1.30;;;;;;;3.96;100.00;99655.59;5070566;28;20070;-54
2023/03/07 04:40:18;;;;;;;11.27;0.90;;;;;;;4.03;100.00;99645.94;5069657;28;20149;-55
2023/03/07 04:42:44;;;;;;;14.45;0.93;;;;;;;3.97;100.00;99649.28;5069680;28;20447;-55
2023/03/07 04:45:09;;;;;;;17.95;1.30;;;;;;;3.92;100.00;99651.59;5081668;28;20085;-54
2023/03/07 04:47:35;;;;;;;18.63;1.48;;;;;;;3.87;100.00;99646.81;5079594;28;20086;-52
2023/03/07 04:50:00;;;;;;;9.18;1.05;;;;;;;3.81;100.00;99638.66;5070573;28;20063;-55
2023/03/07 04:52:25;;;;;;;11.27;1.13;;;;;;;3.76;100.00;99646.28;5070488;28;20378;-53
2023/03/07 04:54:51;;;;;;;13.13;2.28;;;;;;;3.80;100.00;99645.81;5069155;28;20128;-55
2023/03/07 04:57:16;;;;;;;13.45;1.33;;;;;;;3.80;100.00;99650.31;5069346;28;20032;-53
2023/03/07 04:59:41;;;;;;;8.35;1.00;;;;;;;3.68;100.00;99653.28;5078288;28;20036;-52
2023/03/07 05:02:08;;;;;;;12.65;1.40;;;;;;;3.65;100.00;99658.94;5079533;28;20390;-53
2023/03/07 05:04:33;;;;;;;13.27;1.25;;;;;;;3.61;100.00;99662.94;5069136;28;20043;-51
2023/03/07 05:06:59;;;;;;;12.60;1.23;;;;;;;3.52;100.00;99666.59;5070995;28;20463;-52
2023/03/07 05:09:24;;;;;;;10.48;1.40;;;;;;;3.47;100.00;99660.94;5069672;28;20038;-53
2023/03/07 05:11:50;;;;;;;16.15;1.20;;;;;;;3.44;100.00;99671.91;5070950;28;20025;-53
2023/03/07 05:14:15;;;;;;;19.70;1.83;;;;;;;3.38;100.00;99675.22;5070175;28;20067;-52
2023/03/07 05:16:41;;;;;;;4.47;0.95;;;;;;;3.40;100.00;99668.75;5080764;28;20055;-53
2023/03/07 05:19:07;;;;;;;9.38;0.90;;;;;;;3.34;100.00;99681.84;5068700;28;20197;-55
2023/03/07 05:21:33;;;;;;;12.98;1.92;;;;;;;3.28;100.00;99684.16;5070703;28;20116;-56
2023/03/07 05:23:58;;;;;;;9.15;1.05;;;;;;;3.25;100.00;99679.19;5069397;28;20473;-52
2023/03/07 05:26:24;;;;;;;13.07;1.08;;;;;;;3.18;100.00;99678.16;5069998;28;20105;-51
2023/03/07 05:28:49;;;;;;;10.45;1.42;;;;;;;3.13;100.00;99672.50;5070005;28;20066;-53
2023/03/07 05:31:14;;;;;;;9.05;1.13;;;;;;;3.11;100.00;99674.50;5069399;28;20123;-53
2023/03/07 05:33:41;;;;;;;14.30;1.70;;;;;;;3.14;100.00;99684.81;5069434;28;20024;-56
2023/03/07 05:36:07;;;;;;;14.63;2.38;;;;;;;3.09;100.00;99679.16;5070931;28;20479;-57
2023/03/07 05:38:32;;;;;;;6.68;0.90;;;;;;;3.00;100.00;99680.09;5069345;28;20033;-57
2023/03/07 05:40:58;;;;;;;9.63;1.30;;;;;;;2.91;100.00;99681.91;5070063;28;20378;-56
2023/03/07 05:43:23;;;;;;;4.88;1.20;;;;;;;2.80;100.00;99683.03;5069651;28;20038;-55
2023/03/07 05:45:48;;;;;;;9.38;1.70;;;;;;;2.71;100.00;99684.00;5069795;28;20033;-58
2023/03/07 05:48:14;;;;;;;9.60;1.40;;;;;;;2.66;100.00;99683.66;5068966;28;20039;-56
2023/03/07 05:50:40;;;;;;;13.48;1.60;;;;;;;2.61;100.00;99683.31;5068334;28;20524;-57
2023/03/07 05:53:06;;;;;;;11.70;1.70;;;;;;;2.59;100.00;99679.97;5067630;28;20073;-58
2023/03/07 05:55:31;;;;;;;4.68;1.30;;;;;;;2.56;100.00;99681.13;5069939;28;20085;-57
2023/03/07 05:57:57;;;;;;;6.10;1.30;;;;;;;2.52;100.00;99681.59;5069853;28;20094;-57
2023/03/07 06:00:22;;;;;;;13.05;1.75;;;;;;;2.52;100.00;99682.41;5067916;28;20024;-57
2023/03/07 06:02:47;;;;;;;11.82;1.27;;;;;;;2.52;100.00;99686.91;5067644;28;20731;-57
2023/03/07 06:05:13;;;;;;;9.60;1.13;;;;;;;2.49;100.00;99687.22;5069759;28;20055;-56
2023/03/07 06:07:38;;;;;;;10.40;1.63;;;;;;;2.48;100.00;99686.41;5068598;28;20032;-58
2023/03/07 06:10:04;;;;;;;4.57;1.10;;;;;;;2.45;100.00;99685.84;5070161;28;20043;-57
2023/03/07 06:12:29;;;;;;;14.95;1.83;;;;;;;2.47;100.00;99687.38;5069165;28;20512;-56
2023/03/07 06:14:55;;;;;;;15.13;2.70;;;;;;;2.53;100.00;99689.41;5070817;28;20166;-55
2023/03/07 06:17:20;;;;;;;8.40;1.90;;;;;;;2.55;100.00;99699.84;5067681;28;20098;-55
2023/03/07 06:19:45;;;;;;;12.15;2.03;;;;;;;2.51;100.00;99685.25;5067410;28;20075;-55
2023/03/07 06:22:11;;;;;;;7.20;1.10;;;;;;;2.49;100.00;99695.19;5069905;28;20059;-52
2023/03/07 06:24:36;;;;;;;8.25;1.00;;;;;;;2.48;100.00;99688.22;5069938;28;20473;-54
2023/03/07 06:27:02;;;;;;;9.52;1.67;;;;;;;2.52;100.00;99686.91;5069880;28;20028;-54
2023/03/07 06:29:27;;;;;;;9.98;1.30;;;;;;;2.49;100.00;99697.84;5069317;28;20059;-55
2023/03/07 06:31:53;;;;;;;5.53;1.00;;;;;;;2.52;100.00;99692.22;5064617;28;20324;-54
2023/03/07 06:34:18;;;;;;;5.63;0.75;;;;;;;2.48;100.00;99696.19;5049625;28;20036;-55
2023/03/07 06:36:43;;;;;;;7.57;1.25;;;;;;;2.50;100.00;99702.16;5052269;28;20032;-54
2023/03/07 06:39:09;;;;;;;13.35;2.38;;;;;;;2.51;100.00;99691.38;5067745;28;20029;-53
2023/03/07 06:41:34;;;;;;;9.35;1.10;;;;;;;2.48;100.00;99690.88;5068524;28;20032;-53
2023/03/07 06:43:59;;;;;;;8.10;1.13;;;;;;;2.48;100.00;99690.88;5069830;28;20105;-54
2023/03/07 06:46:25;;;;;;;7.63;1.08;;;;;;;2.42;100.00;99693.16;5069615;28;20498;-53
2023/03/07 06:48:51;;;;;;;4.50;0.88;;;;;;;2.48;100.00;99690.88;5069337;28;20240;-54
2023/03/07 06:51:16;;;;;;;5.38;0.85;;;;;;;2.48;100.00;99691.72;5069286;28;20093;-56
2023/03/07 06:53:42;;;;;;;7.10;1.45;;;;;;;2.48;100.00;99688.22;5069261;28;20035;-58
2023/03/07 06:56:07;;;;;;;14.80;1.17;;;;;;;2.48;100.00;99691.72;5068854;28;20039;-54
2023/03/07 06:58:33;;;;;;;10.15;1.20;;;;;;;2.49;100.00;99684.56;5069440;28;20381;-58
2023/03/07 07:00:58;;;;;;;9.73;1.10;;;;;;;2.50;100.00;99694.19;5067227;28;20028;-57
2023/03/07 07:03:24;;;;;;;9.95;2.35;;;;;;;2.54;100.00;99687.59;5070208;28;20043;-57
2023/03/07 07:05:49;;;;;;;7.82;1.30;;;;;;;2.55;100.00;99692.72;5073277;28;20028;-55
2023/03/07 07:08:15;;;;;;;12.98;1.48;;;;;;;2.53;100.00;99688.59;5073147;28;20013;-57
2023/03/07 07:10:40;;;;;;;10.20;1.80;;;;;;;2.55;100.00;99700.69;5073145;28;20032;-56
2023/03/07 07:13:06;;;;;;;14.55;1.75;;;;;;;2.59;100.00;99703.88;5072632;28;20066;-57
2023/03/07 07:15:31;;;;;;;20.75;2.55;;;;;;;2.57;100.00;99706.69;5068385;28;20037;-55
2023/03/07 07:17:56;;;;;;;13.88;3.83;;;;;;;2.59;100.00;99706.53;5072492;28;20048;-56
2023/03/07 07:20:22;;;;;;;18.95;2.42;;;;;;;2.58;100.00;99707.50;5072673;28;20027;-53
2023/03/07 07:22:48;;;;;;;12.98;2.90;;;;;;;2.60;100.00;99706.34;5073105;28;20035;-54
2023/03/07 07:25:13;;;;;;;14.35;2.90;;;;;;;2.50;100.00;99704.81;5072719;28;20462;-57
2023/03/07 07:27:39;;;;;;;7.53;2.67;;;;;;;2.47;100.00;99707.78;5072550;28;20024;-57
2023/03/07 07:30:05;;;;;;;13.23;3.63;;;;;;;2.45;100.00;99712.41;5073370;28;20051;-56
2023/03/07 07:32:30;;;;;;;15.07;2.85;;;;;;;2.45;100.00;99718.59;5072812;28;20036;-55
2023/03/07 07:34:56;;;;;;;6.72;2.45;;;;;;;2.44;100.00;99718.72;5072414;28;20025;-54
2023/03/07 07:37:22;;;;;;;10.02;2.33;;;;;;;2.36;100.00;99716.84;5072795;28;20113;-54
2023/03/07 07:39:48;;;;;;;9.93;1.25;;;;;;;2.40;100.00;99713.72;5072519;28;20358;-56
2023/03/07 07:42:14;;;;;;;8.45;1.45;;;;;;;2.38;100.00;99710.41;5072621;28;20035;-55
2023/03/07 07:44:39;;;;;;;8.00;1.63;;;;;;;2.42;100.00;99719.72;5072308;28;20379;-55
2023/03/07 07:47:04;;;;;;;6.07;1.20;;;;;;;2.48;100.00;99722.75;5072942;28;20020;-57
2023/03/07 07:49:30;;;;;;;7.93;1.60;;;;;;;2.47;100.00;99713.91;5072679;28;20046;-55
2023/03/07 07:51:55;;;;;;;9.45;2.42;;;;;;;2.50;100.00;99718.94;5072750;28;20106;-54
2023/03/07 07:54:21;;;;;;;3.85;1.40;;;;;;;2.57;100.00;99732.41;5072482;28;20067;-52
2023/03/07 07:56:46;;;;;;;6.22;1.45;;;;;;;2.66;100.00;99726.16;5072730;28;20038;-52
2023/03/07 07:59:12;;;;;;;9.60;1.30;;;;;;;2.73;100.00;99729.84;5072626;28;20040;-51
2023/03/07 08:01:37;;;;;;;10.75;1.55;;;;;;;2.71;100.00;99723.00;5072801;28;20028;-51
2023/03/07 08:04:02;;;;;;;13.00;1.60;;;;;;;2.79;100.00;99726.56;5072402;28;20036;-50
2023/03/07 08:06:28;;;;;;;16.10;1.38;;;;;;;2.81;100.00;99729.03;5071048;28;20020;-51
2023/03/07 08:08:54;;;;;;;11.45;1.75;;;;;;;2.82;100.00;99726.25;5072611;28;20055;-51
2023/03/07 08:11:21;;;;;;;6.57;1.40;;;;;;;2.82;100.00;99728.06;5072275;28;20047;-49
2023/03/07 08:13:46;;;;;;;4.25;1.08;;;;;;;2.81;100.00;99721.91;5072520;28;20419;-51
2023/03/07 08:16:15;;;;;;;11.73;1.70;;;;;;;2.80;100.00;99722.91;5071327;28;20090;-52
2023/03/07 08:18:40;;;;;;;;;;;;;;;2.84;100.00;99723.41;5072811;28;20045;-56
2023/03/07 08:21:07;;;;;;;17.67;1.52;;;;;;;2.86;100.00;99722.25;5072245;28;19999;-58
2023/03/07 08:23:33;;;;;;;13.98;1.95;;;;;;;2.92;100.00;99722.59;5072570;28;20035;-54
2023/03/07 08:26:03;;;;;;;6.60;1.02;;;;;;;2.95;100.00;99719.63;5071949;28;20419;-52
2023/03/07 08:28:29;;;;;;;13.25;2.22;;;;;;;3.03;100.00;99717.03;5072375;28;20107;-52
2023/03/07 08:30:54;;;;;;;11.07;2.00;;;;;;;3.02;100.00;99721.47;5072203;28;20107;-55
2023/03/07 08:33:19;;;;;;;6.65;1.30;;;;;;;3.09;100.00;99711.06;5071917;28;20028;-53
2023/03/07 08:35:45;;;;;;;26.70;1.70;;;;;;;3.12;100.00;99718.69;5071928;28;20471;-54
2023/03/07 08:38:10;;;;;;;7.22;1.50;;;;;;;3.21;100.00;99720.41;5071998;28;20078;-57
2023/03/07 08:40:36;;;;;;;11.95;1.20;;;;;;;3.26;100.00;99718.06;5071598;28;20099;-53
2023/03/07 08:43:01;;;;;;;9.13;1.15;;;;;;;3.30;100.00;99716.75;5071755;28;20016;-53
2023/03/07 08:45:26;;;;;;;4.40;0.90;;;;;;;3.33;100.00;99712.13;5071785;28;20455;-53
2023/03/07 08:47:53;;;;;;;7.05;1.83;;;;;;;3.39;100.00;99717.59;5071574;28;20033;-54
2023/03/07 08:50:20;;;;;;;8.68;1.52;;;;;;;3.39;100.00;99704.31;5071867;28;20367;-50
2023/03/07 08:52:46;;;;;;;9.98;1.35;;;;;;;3.49;100.00;99720.94;5071546;28;20360;-51
2023/03/07 08:55:11;;;;;;;11.68;1.50;;;;;;;3.55;100.00;99723.94;5070056;28;20027;-53
2023/03/07 08:57:37;;;;;;;6.22;0.80;;;;;;;3.53;100.00;99713.50;5071347;28;20182;-51
2023/03/07 09:00:04;;;;;;;8.15;1.13;;;;;;;3.53;100.00;99708.16;5071686;28;20035;-50
2023/03/07 09:02:29;;;;;;;10.32;0.93;;;;;;;3.54;100.00;99703.69;5071706;28;20066;-53
2023/03/07 09:04:54;;;;;;;6.05;0.73;;;;;;;3.58;100.00;99715.63;5072292;28;20138;-50
2023/03/07 09:07:20;;;;;;;9.52;1.13;;;;;;;3.64;100.00;99721.16;5072304;28;20021;-51
2023/03/07 09:09:45;;;;;;;11.93;1.48;;;;;;;3.81;100.00;99707.84;5071940;28;20542;-49
2023/03/07 09:12:11;;;;;;;7.38;0.80;;;;;;;3.89;100.00;99715.81;5072478;28;20032;-51
2023/03/07 09:14:36;;;;;;;8.65;1.05;;;;;;;3.88;100.00;99714.19;5072005;28;20021;-49
2023/03/07 09:17:01;;;;;;;11.63;1.42;;;;;;;3.94;100.00;99716.16;5071887;28;20036;-50
2023/03/07 09:19:27;;;;;;;5.50;0.93;;;;;;;3.96;100.00;99716.84;5072027;28;20044;-50
2023/03/07 09:21:52;;;;;;;6.03;0.90;;;;;;;4.00;100.00;99715.47;5072058;28;20453;-50
2023/03/07 09:24:17;;;;;;;12.63;1.10;;;;;;;4.07;100.00;99711.16;5071849;28;20454;-50
2023/03/07 09:26:43;;;;;;;7.72;0.93;;;;;;;4.00;100.00;99698.69;5071510;28;20035;-51
2023/03/07 09:29:08;;;;;;;4.15;0.95;;;;;;;4.02;100.00;99697.50;5071795;28;20104;-51
2023/03/07 09:31:34;;;;;;;4.90;0.90;;;;;;;4.02;100.00;99705.50;5071293;28;20025;-51
2023/03/07 09:33:59;;;;;;;13.80;1.30;;;;;;;4.03;100.00;99693.88;5071539;28;20490;-50
2023/03/07 09:36:24;;;;;;;11.30;1.15;;;;;;;4.15;100.00;99689.03;5071798;28;20153;-51
2023/03/07 09:38:50;;;;;;;2.28;0.80;;;;;;;4.20;100.00;99696.50;5071551;28;20028;-49
2023/03/07 09:41:25;;;;;;;7.28;1.55;;;;;;;4.18;100.00;99694.84;5071323;28;20466;-53
2023/03/07 09:44:19;;;;;;;12.75;1.20;;;;;;;4.15;100.00;99703.16;5071555;28;20044;-51
2023/03/07 09:47:19;;;;;;;13.00;1.08;;;;;;;4.19;100.00;99693.03;5036112;28;20033;-51
2023/03/07 09:49:46;;;;;;;7.30;1.30;;;;;;;4.22;100.00;99694.50;5070761;28;20036;-51
2023/03/07 09:52:33;;;;;;;10.18;1.15;;;;;;;4.10;100.00;99699.34;5069382;28;20044;-50
2023/03/07 09:55:01;;;;;;;10.95;1.20;;;;;;;4.03;100.00;99720.50;5069476;28;20187;-52
2023/03/07 09:57:34;;;;;;;9.20;1.10;;;;;;;4.05;100.00;99717.66;5071047;28;20286;-52
2023/03/07 10:00:19;;;;;;;9.30;1.67;;;;;;;4.04;100.00;99729.31;5053066;28;20305;-50
2023/03/07 10:02:59;;;;;;;8.35;1.35;;;;;;;4.04;100.00;99729.31;5071087;28;20485;-52
2023/03/07 10:05:37;;;;;;;17.48;1.75;;;;;;;3.97;100.00;99726.47;5070740;28;20032;-54
2023/03/07 10:08:03;;;;;;;;;;;;;;;3.94;100.00;99724.16;5070155;28;20086;-51
2023/03/07 10:10:54;;;;;;;8.30;1.23;;;;;;;3.88;100.00;99730.97;5069208;28;19912;-50
2023/03/07 10:13:48;;;;;;;6.50;0.98;;;;;;;3.88;100.00;99722.16;5070818;28;20103;-51
2023/03/07 10:16:42;;;;;;;12.93;1.30;;;;;;;3.92;100.00;99723.47;5071080;28;20115;-51
2023/03/07 10:19:28;;;;;;;7.88;1.70;;;;;;;3.86;100.00;99722.31;5029257;28;20040;-52
2023/03/07 10:22:02;;;;;;;5.28;1.20;;;;;;;3.89;100.00;99737.13;5070896;28;20056;-51
2023/03/07 10:25:05;;;;;;;16.35;1.65;;;;;;;3.84;100.00;99731.47;5071056;28;20131;-56
2023/03/07 10:27:31;;;;;;;11.88;1.75;;;;;;;3.82;100.00;99742.28;5070423;28;20036;-54
2023/03/07 10:29:58;;;;;;;13.25;0.82;;;;;;;3.73;100.00;99735.28;5070402;28;20021;-56
2023/03/07 10:32:35;;;;;;;7.38;1.17;;;;;;;3.67;100.00;99746.59;5068975;28;20039;-56
2023/03/07 10:35:12;;;;;;;11.30;2.20;;;;;;;3.74;100.00;99743.13;5070109;28;20021;-56
2023/03/07 10:37:58;;;;;;;6.23;1.83;;;;;;;3.78;100.00;99742.78;5070260;28;20031;-56
2023/03/07 10:40:25;;;;;;;14.35;1.88;;;;;;;3.77;100.00;99741.13;5074501;28;20086;-55
2023/03/07 10:42:52;;;;;;;7.38;1.35;;;;;;;3.84;100.00;99742.09;5073997;28;20029;-54
2023/03/07 10:45:17;;;;;;;11.57;1.42;;;;;;;3.85;100.00;99743.78;5072667;28;20028;-56
2023/03/07 10:47:43;;;;;;;5.82;1.20;;;;;;;3.75;100.00;99746.59;5072812;28;20029;-56
2023/03/07 10:50:20;;;;;;;10.38;1.33;;;;;;;3.82;100.00;99738.78;5074143;28;20033;-56
2023/03/07 10:52:54;;;;;;;7.18;1.17;;;;;;;3.83;100.00;99740.44;5072405;28;20067;-55
2023/03/07 10:55:31;;;;;;;9.10;2.33;;;;;;;3.82;100.00;99744.09;5072484;28;20047;-56
2023/03/07 10:58:13;;;;;;;7.78;1.30;;;;;;;3.88;100.00;99746.13;5073607;28;20386;-56
2023/03/07 11:00:39;;;;;;;11.23;1.48;;;;;;;3.90;100.00;99742.28;5073795;28;20115;-55
2023/03/07 11:03:21;;;;;;;11.27;1.85;;;;;;;3.91;100.00;99748.44;5073326;28;20128;-56
2023/03/07 11:05:47;;;;;;;7.25;1.80;;;;;;;3.88;100.00;99746.94;5073629;28;20024;-53
2023/03/07 11:08:26;;;;;;;13.32;1.48;;;;;;;3.97;100.00;99740.59;5073492;28;20036;-55
2023/03/07 11:10:51;;;;;;;10.50;1.50;;;;;;;4.03;100.00;99740.94;5074284;28;20017;-53
2023/03/07 11:13:19;;;;;;;10.63;1.45;;;;;;;4.03;100.00;99739.13;5073527;28;20036;-54
2023/03/07 11:15:45;;;;;;;8.82;0.90;;;;;;;4.00;100.00;99742.09;5073848;28;20103;-57
2023/03/07 11:18:30;;;;;;;9.55;1.45;;;;;;;3.89;100.00;99743.28;5073575;28;20107;-57
2023/03/07 11:20:56;;;;;;;5.28;1.23;;;;;;;3.79;100.00;99739.09;5074003;28;20616;-57
2023/03/07 11:23:29;;;;;;;8.70;1.23;;;;;;;3.81;100.00;99742.44;5073407;28;20035;-57
2023/03/07 11:25:55;;;;;;;10.65;1.30;;;;;;;3.76;100.00;99747.44;5073929;28;20036;-56
2023/03/07 11:28:29;;;;;;;13.50;1.30;;;;;;;3.67;100.00;99749.25;5073335;28;20035;-58
2023/03/07 11:31:00;;;;;;;19.90;1.38;;;;;;;3.62;100.00;99749.75;5073417;28;20053;-56